Time;durP1;ratioP1;P1;durP2;ratioP2;P2;SDS_P1;SDS_P2;PMS_P1;PMS_P2;Temp;Humidity;BMP_temperature;BMP_pressure;BME280_temperature;BME280_humidity;BME280_pressure;Samples;Min_cycle;Max_cycle;Signal;HPM_P1;HPM_P2
2024/04/10 00:01:45;;;;;;;15.02;11.55;;;435.30;2355.20;;;;;;5408145;26;19995;-74
2024/04/10 00:04:11;;;;;;;10.70;6.78;;;435.30;2355.20;;;;;;5408763;26;20000;-71
2024/04/10 00:06:36;;;;;;;8.68;5.75;;;435.20;2355.20;;;;;;5408203;26;20013;-71
2024/04/10 00:09:03;;;;;;;7.10;5.15;;;435.20;2355.20;;;;;;5412379;26;20003;-72
2024/04/10 00:11:30;;;;;;;10.13;5.57;;;410.50;2355.20;;;;;;5411046;26;20391;-71
2024/04/10 00:13:56;;;;;;;7.00;5.30;;;410.50;2355.20;;;;;;5412165;26;20018;-71
2024/04/10 00:16:22;;;;;;;10.88;5.57;;;410.40;2355.20;;;;;;5412280;26;20003;-72
2024/04/10 00:18:47;;;;;;;10.07;5.93;;;410.20;2355.20;;;;;;5412381;26;20015;-75
2024/04/10 00:21:13;;;;;;;11.65;6.10;;;410.10;2355.20;;;;;;5410842;26;20014;-71
2024/04/10 00:23:39;;;;;;;8.23;6.60;;;410.10;2355.20;;;;;;5412574;26;19999;-76
2024/04/10 00:26:05;;;;;;;8.82;6.32;;;410.00;2355.20;;;;;;5411284;26;20007;-72
2024/04/10 00:28:31;;;;;;;6.47;4.72;;;410.00;2355.20;;;;;;5412137;26;20080;-71
2024/04/10 00:31:03;;;;;;;7.82;5.57;;;410.00;2355.20;;;;;;5411490;26;20004;-74
2024/04/10 00:33:29;;;;;;;9.07;5.55;;;410.10;2355.20;;;;;;5412728;26;20012;-74
2024/04/10 00:36:01;;;;;;;9.02;5.63;;;410.10;2355.20;;;;;;5410350;26;20109;-70
2024/04/10 00:38:29;;;;;;;8.23;6.70;;;409.90;2355.20;;;;;;5411925;26;20014;-72
2024/04/10 00:40:57;;;;;;;6.82;5.32;;;410.00;2355.20;;;;;;5410574;26;20023;-71
2024/04/10 00:43:24;;;;;;;11.68;7.85;;;409.90;2355.20;;;;;;5392166;26;20004;-73
2024/04/10 00:46:16;;;;;;;9.80;7.50;;;409.70;2355.20;;;;;;5407318;26;20022;-70
2024/04/10 00:48:43;;;;;;;8.93;5.28;;;409.70;2355.20;;;;;;5411459;26;20453;-71
2024/04/10 00:51:17;;;;;;;6.85;5.28;;;409.70;2355.20;;;;;;5411501;26;20018;-71
2024/04/10 00:53:44;;;;;;;6.97;5.20;;;409.70;2355.20;;;;;;5411629;26;20018;-71
2024/04/10 00:56:10;;;;;;;8.00;5.45;;;409.70;2355.20;;;;;;5411424;26;20333;-71
2024/04/10 00:58:37;;;;;;;7.63;4.40;;;409.80;2355.20;;;;;;5387009;26;21612;-73
2024/04/10 01:01:04;;;;;;;5.82;4.60;;;409.70;2355.20;;;;;;5410279;26;20004;-71
2024/04/10 01:03:35;;;;;;;8.82;5.40;;;409.70;2355.20;;;;;;5411817;26;19996;-72
2024/04/10 01:06:08;;;;;;;5.90;4.10;;;409.70;2355.20;;;;;;5411316;26;20018;-71
2024/04/10 01:08:35;;;;;;;7.45;4.57;;;409.90;2355.20;;;;;;5410802;26;20009;-74
2024/04/10 01:11:04;;;;;;;6.35;3.95;;;409.90;2355.20;;;;;;5411219;26;20015;-72
2024/04/10 01:13:30;;;;;;;6.05;4.30;;;410.00;2355.20;;;;;;5411108;26;19996;-73
2024/04/10 01:15:56;;;;;;;7.32;3.50;;;409.90;2355.20;;;;;;5410572;26;20000;-72
2024/04/10 01:18:22;;;;;;;5.55;4.15;;;409.90;2355.20;;;;;;5410797;26;19995;-73
2024/04/10 01:20:51;;;;;;;6.03;3.78;;;409.90;2355.20;;;;;;5410692;26;20000;-74
2024/04/10 01:23:18;;;;;;;4.63;3.90;;;409.90;2355.20;;;;;;5411486;26;20341;-76
2024/04/10 01:25:44;;;;;;;5.68;4.40;;;409.90;2355.20;;;;;;5410408;26;19995;-72
2024/04/10 01:28:10;;;;;;;5.60;4.13;;;409.80;2355.20;;;;;;5410746;26;20100;-71
2024/04/10 01:30:36;;;;;;;9.00;4.18;;;409.70;2355.20;;;;;;5410953;26;20094;-73
2024/04/10 01:33:02;;;;;;;7.78;4.65;;;409.60;2355.20;;;;;;5411328;26;20545;-74
2024/04/10 01:35:28;;;;;;;17.70;4.72;;;409.70;2355.20;;;;;;5409390;26;20013;-74
2024/04/10 01:37:54;;;;;;;8.43;4.13;;;409.70;2355.20;;;;;;5410570;26;20000;-74
2024/04/10 01:40:23;;;;;;;7.22;4.13;;;409.70;2355.20;;;;;;5411009;26;20040;-73
2024/04/10 01:42:49;;;;;;;6.43;4.13;;;409.70;2355.20;;;;;;5409862;26;20003;-76
2024/04/10 01:45:15;;;;;;;9.18;4.15;;;409.70;2355.20;;;;;;5411458;26;20000;-75
2024/04/10 01:47:42;;;;;;;7.88;4.07;;;409.70;2355.20;;;;;;5410150;26;20003;-72
2024/04/10 01:50:08;;;;;;;6.30;3.75;;;409.60;2355.20;;;;;;5410879;26;20003;-74
2024/04/10 01:52:34;;;;;;;6.47;3.95;;;384.90;2329.60;;;;;;5410124;26;20019;-74
2024/04/10 01:55:00;;;;;;;10.55;4.10;;;384.80;2329.60;;;;;;5411147;26;20003;-74
2024/04/10 01:57:26;;;;;;;7.95;4.22;;;384.70;2329.60;;;;;;5408941;26;20080;-76
2024/04/10 01:59:52;;;;;;;5.22;4.00;;;384.80;2329.60;;;;;;5411041;26;20011;-75
2024/04/10 02:02:18;;;;;;;7.63;4.85;;;384.80;2329.60;;;;;;5399369;26;20004;-77
2024/04/10 02:04:45;;;;;;;10.00;4.50;;;384.80;2329.60;;;;;;5398451;26;20069;-72
2024/04/10 02:07:11;;;;;;;7.15;4.68;;;384.90;2329.60;;;;;;5410073;26;20003;-75
2024/04/10 02:09:37;;;;;;;5.50;3.85;;;384.80;2329.60;;;;;;5410310;26;20294;-71
2024/04/10 02:12:03;;;;;;;9.88;4.80;;;384.70;2329.60;;;;;;5409561;26;20003;-74
2024/04/10 02:14:30;;;;;;;7.20;4.20;;;384.80;2329.60;;;;;;5410992;26;20032;-75
2024/04/10 02:16:56;;;;;;;5.10;3.30;;;384.90;2329.60;;;;;;5409362;26;20114;-75
2024/04/10 02:19:21;;;;;;;7.13;4.18;;;409.60;2355.20;;;;;;5410683;26;20011;-74
2024/04/10 02:21:47;;;;;;;4.88;4.13;;;384.80;2329.60;;;;;;5409236;26;20080;-74
2024/04/10 02:24:16;;;;;;;6.72;4.47;;;384.70;2329.60;;;;;;5409427;26;20014;-72
2024/04/10 02:26:42;;;;;;;7.30;4.43;;;384.80;2329.60;;;;;;5410143;26;20015;-74
2024/04/10 02:29:10;;;;;;;7.15;4.50;;;384.80;2329.60;;;;;;5408695;26;20003;-73
2024/04/10 02:31:37;;;;;;;6.82;3.58;;;384.80;2329.60;;;;;;5363089;26;19999;-74
2024/04/10 02:34:03;;;;;;;6.40;3.85;;;384.80;2329.60;;;;;;5410191;26;20003;-75
2024/04/10 02:36:28;;;;;;;5.13;3.75;;;384.80;2329.60;;;;;;5409077;26;20034;-73
2024/04/10 02:38:54;;;;;;;5.32;3.83;;;384.80;2329.60;;;;;;5409932;26;20445;-73
2024/04/10 02:41:20;;;;;;;8.18;4.30;;;384.70;2329.60;;;;;;5409232;26;20018;-71
2024/04/10 02:43:47;;;;;;;5.18;3.92;;;384.80;2329.60;;;;;;5409827;26;20003;-74
2024/04/10 02:46:16;;;;;;;10.05;4.07;;;384.70;2329.60;;;;;;5409925;26;20004;-74
2024/04/10 02:48:43;;;;;;;7.85;4.43;;;384.70;2329.60;;;;;;5409628;26;20441;-77
2024/04/10 02:51:09;;;;;;;7.03;4.70;;;384.70;2329.60;;;;;;5410278;26;20011;-72
2024/04/10 02:53:35;;;;;;;7.07;3.83;;;384.60;2329.60;;;;;;5409532;26;20014;-78
2024/04/10 02:56:01;;;;;;;6.93;4.30;;;384.70;2329.60;;;;;;5410026;26;20003;-73
2024/04/10 02:58:27;;;;;;;6.68;4.72;;;384.50;2329.60;;;;;;5408842;26;20337;-76
2024/04/10 03:00:55;;;;;;;7.80;4.18;;;384.50;2329.60;;;;;;5409236;26;20011;-73
2024/04/10 03:03:22;;;;;;;6.75;5.63;;;384.40;2329.60;;;;;;5409556;26;20415;-72
2024/04/10 03:06:08;;;;;;;4.78;3.72;;;384.10;2329.60;;;;;;5409107;26;20004;-71
2024/04/10 03:08:35;;;;;;;6.53;4.72;;;384.20;2329.60;;;;;;5408802;26;19995;-74
2024/04/10 03:11:02;;;;;;;6.70;4.90;;;384.30;2329.60;;;;;;5409411;26;20029;-75
2024/04/10 03:13:28;;;;;;;7.25;4.55;;;384.00;2329.60;;;;;;5408967;26;19992;-73
2024/04/10 03:15:54;;;;;;;7.15;4.85;;;384.00;2329.60;;;;;;5408222;26;20333;-74
2024/04/10 03:18:20;;;;;;;7.60;4.40;;;384.00;2329.60;;;;;;5408269;26;19995;-72
2024/04/10 03:20:46;;;;;;;4.78;3.95;;;359.30;2329.60;;;;;;5409066;26;20006;-74
2024/04/10 03:23:12;;;;;;;5.95;4.43;;;384.00;2329.60;;;;;;5409370;26;19996;-74
2024/04/10 03:25:38;;;;;;;6.85;3.55;;;359.20;2329.60;;;;;;5408149;26;19995;-75
2024/04/10 03:28:05;;;;;;;7.10;3.90;;;359.30;2329.60;;;;;;5408545;26;20013;-72
2024/04/10 03:30:35;;;;;;;5.38;3.70;;;384.00;2329.60;;;;;;5409261;26;20023;-72
2024/04/10 03:33:01;;;;;;;9.48;3.75;;;384.00;2329.60;;;;;;5408708;26;19999;-73
2024/04/10 03:35:28;;;;;;;7.50;4.30;;;384.10;2329.60;;;;;;5408594;26;20011;-72
2024/04/10 03:37:53;;;;;;;7.68;4.40;;;384.20;2329.60;;;;;;5408807;26;20068;-71
2024/04/10 03:40:19;;;;;;;7.07;4.10;;;384.30;2329.60;;;;;;5409193;26;20329;-77
2024/04/10 03:42:46;;;;;;;6.22;4.20;;;384.30;2329.60;;;;;;5411295;26;20520;-76
2024/04/10 03:45:12;;;;;;;8.75;4.65;;;384.20;2329.60;;;;;;5412395;26;20011;-73
2024/04/10 03:47:39;;;;;;;7.50;5.32;;;384.00;2329.60;;;;;;5412706;26;20006;-75
2024/04/10 03:50:06;;;;;;;13.82;8.15;;;359.30;2329.60;;;;;;5412105;26;20030;-70
2024/04/10 03:52:32;;;;;;;30.20;19.70;;;359.00;2329.60;;;;;;5412702;26;20003;-76
2024/04/10 03:54:57;;;;;;;49.50;31.15;;;359.00;2329.60;;;;;;5411669;26;20337;-72
2024/04/10 03:57:23;;;;;;;21.20;11.15;;;358.90;2329.60;;;;;;5412224;26;19999;-73
2024/04/10 03:59:49;;;;;;;13.25;8.18;;;358.90;2329.60;;;;;;5395480;26;20006;-76
2024/04/10 04:02:15;;;;;;;11.65;7.95;;;359.00;2329.60;;;;;;5412250;26;20003;-74
2024/04/10 04:04:41;;;;;;;25.45;15.65;;;359.00;2329.60;;;;;;5411753;26;20433;-76
2024/04/10 04:07:07;;;;;;;13.65;8.93;;;358.90;2329.60;;;;;;5412335;26;19999;-74
2024/04/10 04:09:33;;;;;;;10.63;6.13;;;358.90;2329.60;;;;;;5412250;26;20006;-73
2024/04/10 04:11:59;;;;;;;10.40;6.55;;;358.80;2329.60;;;;;;5402108;26;20000;-73
2024/04/10 04:14:25;;;;;;;10.07;5.40;;;358.80;2329.60;;;;;;5399788;26;20000;-72
2024/04/10 04:16:51;;;;;;;7.60;5.38;;;358.90;2329.60;;;;;;5411356;26;20072;-75
2024/04/10 04:19:16;;;;;;;8.35;5.55;;;358.80;2329.60;;;;;;5412263;26;20022;-76
2024/04/10 04:21:42;;;;;;;6.95;5.32;;;359.00;2329.60;;;;;;5411441;26;20416;-72
2024/04/10 04:24:08;;;;;;;6.60;4.50;;;359.10;2329.60;;;;;;5412382;26;20014;-74
2024/04/10 04:26:34;;;;;;;9.13;5.97;;;359.20;2329.60;;;;;;5411294;26;20007;-72
2024/04/10 04:29:00;;;;;;;9.77;6.18;;;384.00;2329.60;;;;;;5411905;26;20334;-70
2024/04/10 04:31:25;;;;;;;10.10;6.07;;;384.00;2329.60;;;;;;5410517;26;20011;-72
2024/04/10 04:33:54;;;;;;;9.07;5.30;;;384.10;2329.60;;;;;;5411768;26;20073;-73
2024/04/10 04:36:19;;;;;;;5.07;3.78;;;384.30;2329.60;;;;;;5399286;26;20462;-73
2024/04/10 04:38:46;;;;;;;6.70;4.63;;;384.30;2329.60;;;;;;5401378;26;20000;-71
2024/04/10 04:41:12;;;;;;;7.15;4.35;;;384.60;2329.60;;;;;;5411524;26;20098;-70
2024/04/10 04:43:38;;;;;;;9.57;4.32;;;384.60;2329.60;;;;;;5411489;26;20015;-69
2024/04/10 04:46:11;;;;;;;6.13;3.85;;;384.60;2329.60;;;;;;5411646;26;19999;-71
2024/04/10 04:48:37;;;;;;;7.93;3.78;;;384.60;2329.60;;;;;;5389256;26;20018;-70
2024/04/10 04:51:07;;;;;;;9.38;4.07;;;384.80;2329.60;;;;;;5411212;26;19999;-70
2024/04/10 04:53:34;;;;;;;8.75;4.32;;;384.90;2329.60;;;;;;5408334;26;20337;-71
2024/04/10 04:55:59;;;;;;;5.38;3.95;;;384.90;2329.60;;;;;;5410903;26;20015;-74
2024/04/10 04:58:25;;;;;;;7.68;3.72;;;384.90;2329.60;;;;;;5408083;26;20000;-73
2024/04/10 05:00:51;;;;;;;5.85;3.47;;;409.60;2355.20;;;;;;5411244;26;20337;-71
2024/04/10 05:06:05;;;;;;;6.60;4.60;;;409.60;2355.20;;;;;;5409399;26;21024;-72
2024/04/10 05:08:30;;;;;;;5.65;3.78;;;435.80;2355.20;;;;;;5412042;26;20023;-73
2024/04/10 05:10:56;;;;;;;6.63;3.88;;;487.20;2252.80;;;;;;5410797;26;20453;-76
2024/04/10 05:13:23;;;;;;;9.18;4.43;;;538.50;2073.60;;;;;;5411107;26;20000;-71
2024/04/10 05:15:56;;;;;;;8.27;4.07;;;588.90;1920.00;;;;;;5411190;26;20076;-72
2024/04/10 05:18:22;;;;;;;8.15;4.70;;;614.40;1843.20;;;;;;5411872;26;20014;-74
2024/04/10 05:20:48;;;;;;;6.40;4.55;;;614.90;1740.80;;;;;;5395364;26;20349;-77
2024/04/10 05:23:13;;;;;;;8.75;4.47;;;640.30;1689.60;;;;;;5405555;26;19999;-71
2024/04/10 05:25:39;;;;;;;5.97;4.57;;;640.90;1638.40;;;;;;5411418;26;20022;-76
2024/04/10 05:28:05;;;;;;;6.82;3.90;;;640.30;1664.00;;;;;;5410470;26;20325;-72
2024/04/10 05:30:31;;;;;;;6.60;4.13;;;640.20;1689.60;;;;;;5411126;26;20325;-78
2024/04/10 05:32:57;;;;;;;6.40;5.10;;;615.30;1715.20;;;;;;5410442;26;20081;-72
2024/04/10 05:35:23;;;;;;;6.78;5.15;;;665.80;1638.40;;;;;;5410787;26;20000;-73
2024/04/10 05:37:48;;;;;;;8.10;4.82;;;691.50;1587.20;;;;;;5411436;26;20000;-71
2024/04/10 05:40:16;;;;;;;6.13;4.97;;;692.00;1536.00;;;;;;5410924;26;20003;-71
2024/04/10 05:42:43;;;;;;;9.07;5.10;;;717.00;1536.00;;;;;;5409557;26;19996;-70
2024/04/10 05:45:12;;;;;;;8.20;5.07;;;742.50;1484.80;;;;;;5410994;26;20000;-74
2024/04/10 05:47:39;;;;;;;8.27;5.70;;;743.10;1459.20;;;;;;5410545;26;20000;-76
2024/04/10 05:50:09;;;;;;;6.13;5.43;;;793.60;1408.00;;;;;;5410541;26;20003;-73
2024/04/10 05:52:35;;;;;;;6.40;5.80;;;794.20;1382.40;;;;;;5410692;26;20007;-80
2024/04/10 05:55:03;;;;;;;7.72;6.55;;;794.20;1356.80;;;;;;5410504;26;20773;-73
2024/04/10 05:57:29;;;;;;;10.07;6.38;;;819.60;1305.60;;;;;;5410551;26;20004;-74
2024/04/10 05:59:55;;;;;;;7.60;6.35;;;845.20;1280.00;;;;;;5388360;26;20011;-73
2024/04/10 06:02:22;;;;;;;8.82;6.95;;;845.70;1280.00;;;;;;5409794;26;20003;-79
2024/04/10 06:04:57;;;;;;;7.22;6.25;;;870.60;1280.00;;;;;;5408085;26;20000;-73
2024/04/10 06:07:24;;;;;;;9.27;8.38;;;870.60;1254.40;;;;;;5367360;26;20000;-80
2024/04/10 06:09:53;;;;;;;9.18;6.70;;;870.70;1254.40;;;;;;5398144;26;20011;-81
2024/04/10 06:12:19;;;;;;;7.32;6.45;;;870.50;1254.40;;;;;;5400346;26;21392;-74
2024/04/10 06:14:45;;;;;;;7.03;6.30;;;844.80;1331.20;;;;;;5398628;26;20011;-79
2024/04/10 06:17:11;;;;;;;6.85;6.25;;;870.80;1254.40;;;;;;5394589;26;20018;-79
2024/04/10 06:19:40;;;;;;;28.27;11.50;;;896.40;1203.20;;;;;;5393140;26;20288;-74
2024/04/10 06:22:06;;;;;;;7.53;6.07;;;922.10;1177.60;;;;;;5380546;26;20000;-73
2024/04/10 06:24:31;;;;;;;7.72;6.93;;;947.90;1126.40;;;;;;5377471;26;20040;-72
2024/04/10 06:26:57;;;;;;;8.00;7.10;;;973.20;1100.80;;;;;;5378528;26;20000;-74
2024/04/10 06:29:23;;;;;;;9.45;7.75;;;972.80;1126.40;;;;;;5377718;26;20004;-78
2024/04/10 06:31:49;;;;;;;9.85;7.88;;;973.20;1100.80;;;;;;5384872;26;19999;-78
2024/04/10 06:34:15;;;;;;;9.02;8.15;;;948.00;1100.80;;;;;;5397369;26;20011;-79
2024/04/10 06:36:40;;;;;;;11.25;9.02;;;947.60;1100.80;;;;;;5389616;26;20020;-73
2024/04/10 06:39:09;;;;;;;11.07;8.32;;;973.20;1126.40;;;;;;5410023;26;20027;-77
2024/04/10 08:34:10;;;;;;;8.60;7.70;;;1075.90;921.60;;;;;;5350325;21;20085;-75
2024/04/10 08:36:36;;;;;;;8.35;7.45;;;1075.40;947.20;;;;;;5374981;26;20335;-75
2024/04/10 08:39:03;;;;;;;11.82;7.88;;;1049.70;972.80;;;;;;5376497;26;20000;-79
2024/04/10 08:41:29;;;;;;;11.32;7.72;;;1024.10;972.80;;;;;;5376922;26;19993;-72
2024/04/10 08:43:56;;;;;;;13.48;7.20;;;999.30;972.80;;;;;;5373843;26;20011;-78
2024/04/10 08:46:26;;;;;;;9.23;7.28;;;973.70;998.40;;;;;;5376912;26;20012;-74
2024/04/10 08:48:56;;;;;;;9.18;7.15;;;947.50;1024.00;;;;;;5377177;26;20011;-72
2024/04/10 08:51:24;;;;;;;12.02;7.80;;;896.80;1075.20;;;;;;5376692;26;20010;-72
2024/04/10 08:53:52;;;;;;;14.10;6.70;;;;;;;;;;5376524;26;20069;-79
2024/04/10 08:56:18;;;;;;;9.45;5.95;;;870.70;1177.60;;;;;;5376224;26;20410;-71
2024/04/10 08:58:44;;;;;;;9.50;5.95;;;845.40;1203.20;;;;;;5346574;26;20001;-78
2024/04/10 09:01:10;;;;;;;14.73;7.15;;;819.90;1228.80;;;;;;5355554;26;20008;-71
2024/04/10 09:03:36;;;;;;;9.13;6.28;;;819.50;1254.40;;;;;;5374878;26;20531;-72
2024/04/10 09:06:07;;;;;;;10.65;6.18;;;819.20;1254.40;;;;;;5375922;26;20001;-71
2024/04/10 09:08:33;;;;;;;11.73;6.18;;;794.10;1280.00;;;;;;5376096;26;20010;-71
2024/04/10 09:10:59;;;;;;;10.63;6.28;;;794.10;1305.60;;;;;;5373684;26;19996;-74
2024/04/10 09:13:25;;;;;;;9.88;6.25;;;793.90;1305.60;;;;;;5376151;26;20048;-76
2024/04/10 09:15:57;;;;;;;11.57;6.53;;;768.90;1280.00;;;;;;5375634;26;19996;-71
2024/04/10 09:18:23;;;;;;;8.20;5.80;;;768.60;1305.60;;;;;;5375992;26;20004;-74
2024/04/10 09:20:49;;;;;;;13.20;5.47;;;768.70;1305.60;;;;;;5375571;26;20008;-73
2024/04/10 09:23:15;;;;;;;11.43;5.80;;;768.60;1331.20;;;;;;5375988;26;20454;-73
2024/04/10 09:25:43;;;;;;;10.73;6.25;;;768.40;1356.80;;;;;;5375553;26;20080;-72
2024/04/10 09:28:11;;;;;;;8.90;5.80;;;;;;;;;;5375589;26;20329;-72
2024/04/10 09:30:37;;;;;;;7.95;5.65;;;768.50;1331.20;;;;;;5375302;26;20001;-79
2024/04/10 09:33:06;;;;;;;10.48;5.50;;;768.20;1356.80;;;;;;5376137;26;20015;-73
2024/04/10 09:35:34;;;;;;;9.85;6.55;;;743.30;1356.80;;;;;;5375404;26;20004;-73
2024/04/10 09:38:02;;;;;;;10.45;6.10;;;743.30;1382.40;;;;;;5375749;26;20070;-73
2024/04/10 09:40:29;;;;;;;8.63;6.10;;;743.00;1382.40;;;;;;5374915;26;20377;-72
2024/04/10 09:43:03;;;;;;;10.20;5.63;;;742.90;1382.40;;;;;;5360771;26;20051;-75
2024/04/10 09:45:34;;;;;;;11.27;6.90;;;743.00;1408.00;;;;;;5360868;26;20021;-75
2024/04/10 09:48:03;;;;;;;17.63;6.65;;;742.80;1433.60;;;;;;5373401;26;20023;-73
2024/04/10 09:50:32;;;;;;;9.82;6.80;;;742.60;1433.60;;;;;;5375140;26;20022;-72
2024/04/10 09:52:59;;;;;;;7.30;6.43;;;742.60;1433.60;;;;;;5375830;26;20015;-74
2024/04/10 09:55:25;;;;;;;9.05;6.30;;;742.40;1433.60;;;;;;5375207;26;20018;-75
2024/04/10 09:57:52;;;;;;;13.18;7.10;;;742.50;1459.20;;;;;;5375272;26;20442;-73
2024/04/10 10:00:18;;;;;;;16.35;6.82;;;742.50;1459.20;;;;;;5374994;26;20000;-79
2024/04/10 10:02:43;;;;;;;11.77;6.78;;;717.70;1433.60;;;;;;5375594;26;20004;-71
2024/04/10 10:05:20;;;;;;;9.02;6.88;;;717.60;1433.60;;;;;;5374615;26;20005;-73
2024/04/10 10:07:46;;;;;;;9.73;7.03;;;717.70;1459.20;;;;;;5375315;26;20024;-72
2024/04/10 10:10:12;;;;;;;11.18;6.88;;;717.60;1459.20;;;;;;5346153;26;19997;-74
2024/04/10 10:12:38;;;;;;;11.93;7.15;;;717.70;1459.20;;;;;;5351870;26;20069;-78
2024/04/10 10:15:11;;;;;;;8.15;7.07;;;717.50;1484.80;;;;;;5352942;26;20353;-76
2024/04/10 10:17:37;;;;;;;;;;;717.50;1484.80;;;;;;5360514;26;20005;-77
2024/04/10 10:20:04;;;;;;;10.75;6.43;;;717.40;1459.20;;;;;;5356501;26;19925;-74
2024/04/10 10:22:30;;;;;;;14.60;7.30;;;717.40;1459.20;;;;;;5348991;26;20094;-77
2024/04/10 10:24:59;;;;;;;11.68;5.57;;;717.30;1484.80;;;;;;5361857;26;20074;-77
2024/04/10 10:27:26;;;;;;;10.82;5.78;;;717.30;1484.80;;;;;;5360595;26;20083;-75
2024/04/10 10:30:07;;;;;;;10.65;6.10;;;717.20;1459.20;;;;;;5344832;26;20000;-78
2024/04/10 10:32:33;;;;;;;13.05;5.45;;;717.10;1459.20;;;;;;5362134;26;20329;-78
2024/04/10 10:35:09;;;;;;;10.35;6.65;;;717.00;1459.20;;;;;;5359089;26;19996;-77
2024/04/10 10:37:35;;;;;;;9.45;6.35;;;717.10;1459.20;;;;;;5354955;26;20053;-75
2024/04/10 10:40:06;;;;;;;11.70;6.65;;;;;;;;;;5361133;26;20022;-81
2024/04/10 10:42:32;;;;;;;9.95;6.15;;;;;;;;;;5355894;26;20015;-79
2024/04/10 10:45:05;;;;;;;11.00;6.00;;;;;;;;;;5364069;26;20019;-78
2024/04/10 10:47:31;;;;;;;;;;;;;;;;;;5344020;26;20009;-78
2024/04/10 10:50:03;;;;;;;9.05;6.57;;;;;;;;;;5345282;26;20316;-77
2024/04/10 10:52:31;;;;;;;7.05;5.82;;;716.80;1459.20;;;;;;5365089;26;20864;-75
2024/04/10 10:54:57;;;;;;;10.68;6.47;;;;;;;;;;5352755;26;20078;-72
2024/04/10 10:57:23;;;;;;;13.80;6.07;;;;;;;;;;5351180;26;20000;-77
2024/04/10 10:59:49;;;;;;;9.85;6.13;;;716.80;1484.80;;;;;;5357275;26;20571;-77
2024/04/10 11:02:15;;;;;;;12.18;6.03;;;692.10;1459.20;;;;;;5355554;26;20001;-74
2024/04/10 11:04:41;;;;;;;15.25;6.13;;;691.90;1459.20;;;;;;5348671;26;20005;-80
2024/04/10 11:07:07;;;;;;;16.55;6.45;;;691.90;1484.80;;;;;;5362184;26;20315;-74
2024/04/10 11:09:33;;;;;;;11.52;6.28;;;692.10;1510.40;;;;;;5352409;26;20011;-80
2024/04/10 11:12:01;;;;;;;9.13;6.25;;;691.90;1510.40;;;;;;5343942;26;20005;-75
2024/04/10 11:14:27;;;;;;;12.70;5.80;;;692.10;1510.40;;;;;;5350016;26;19993;-74
2024/04/10 11:17:00;;;;;;;13.48;7.03;;;691.70;1510.40;;;;;;5349808;26;20516;-76
2024/04/10 11:19:26;;;;;;;;;;;691.80;1484.80;;;;;;5358683;26;20463;-77
2024/04/10 11:21:52;;;;;;;10.60;6.35;;;691.70;1510.40;;;;;;5342609;26;19934;-79
2024/04/10 11:24:20;;;;;;;12.63;6.32;;;691.40;1510.40;;;;;;5347524;26;20008;-77
2024/04/10 11:26:46;;;;;;;10.45;6.20;;;691.60;1510.40;;;;;;5357146;26;20105;-73
2024/04/10 11:29:12;;;;;;;14.07;7.07;;;691.80;1484.80;;;;;;5345513;26;20000;-77
2024/04/10 11:31:38;;;;;;;17.10;5.93;;;691.80;1510.40;;;;;;5344071;26;20032;-79
2024/04/10 11:34:03;;;;;;;13.18;7.00;;;691.70;1484.80;;;;;;5354096;26;20015;-76
2024/04/10 11:36:29;;;;;;;10.07;6.22;;;691.50;1510.40;;;;;;5356247;26;20000;-76
2024/04/10 11:38:56;;;;;;;11.30;6.75;;;691.50;1510.40;;;;;;5350900;26;19997;-77
2024/04/10 11:41:23;;;;;;;8.98;6.40;;;691.40;1510.40;;;;;;5370444;26;20000;-74
2024/04/10 11:43:48;;;;;;;10.55;6.65;;;691.20;1510.40;;;;;;5341874;26;20438;-77
2024/04/10 11:46:14;;;;;;;10.45;6.50;;;691.20;1510.40;;;;;;5357490;26;20001;-77
2024/04/10 11:48:40;;;;;;;9.50;5.65;;;691.40;1510.40;;;;;;5343252;26;20060;-75
2024/04/10 11:51:06;;;;;;;12.63;6.63;;;691.30;1510.40;;;;;;5342452;26;20007;-72
2024/04/10 11:53:33;;;;;;;10.57;5.97;;;691.50;1484.80;;;;;;5355798;26;20015;-72
2024/04/10 11:55:59;;;;;;;12.45;5.97;;;691.50;1484.80;;;;;;5345682;26;20445;-71
2024/04/10 11:58:24;;;;;;;12.88;5.95;;;691.50;1484.80;;;;;;5343176;26;20001;-72
2024/04/10 12:00:51;;;;;;;10.95;5.43;;;691.70;1510.40;;;;;;5346501;26;20434;-71
2024/04/10 12:03:17;;;;;;;11.82;5.57;;;691.70;1484.80;;;;;;5357822;26;20018;-72
2024/04/10 12:05:43;;;;;;;9.00;5.50;;;691.80;1459.20;;;;;;5356716;26;20008;-79
2024/04/10 12:08:09;;;;;;;11.68;5.85;;;691.40;1484.80;;;;;;5351812;26;20183;-73
2024/04/10 12:10:34;;;;;;;9.80;5.03;;;691.60;1484.80;;;;;;5376960;26;20334;-75
2024/04/10 12:13:03;;;;;;;9.05;6.75;;;691.40;1484.80;;;;;;5375967;26;20022;-75
2024/04/10 12:15:29;;;;;;;15.55;6.47;;;691.70;1484.80;;;;;;5376010;26;20016;-81
2024/04/10 12:17:55;;;;;;;12.07;6.15;;;691.60;1484.80;;;;;;5377304;26;20045;-74
2024/04/10 12:20:23;;;;;;;16.33;6.88;;;691.40;1484.80;;;;;;5371686;26;20019;-74
2024/04/10 12:22:50;;;;;;;10.75;6.07;;;691.20;1510.40;;;;;;5376149;26;20326;-77
2024/04/10 12:25:18;;;;;;;18.55;6.10;;;691.40;1536.00;;;;;;5374286;26;20073;-75
2024/04/10 12:27:46;;;;;;;9.38;5.93;;;691.40;1536.00;;;;;;5375857;26;19996;-80
2024/04/10 12:30:12;;;;;;;13.30;6.07;;;691.50;1510.40;;;;;;5376669;26;20012;-77
2024/04/10 12:32:38;;;;;;;15.05;6.13;;;691.40;1536.00;;;;;;5375324;26;20674;-73
2024/04/10 12:38:03;;;;;;;13.77;5.65;;;691.60;1536.00;;;;;;5375534;26;20011;-74
2024/04/10 12:40:29;;;;;;;9.82;5.80;;;691.70;1536.00;;;;;;5376020;26;20011;-78
2024/04/10 12:42:55;;;;;;;13.88;6.45;;;691.90;1536.00;;;;;;5375667;26;20004;-76
2024/04/10 12:45:22;;;;;;;13.75;5.88;;;691.70;1536.00;;;;;;5376125;26;20000;-75
2024/04/10 12:47:48;;;;;;;11.77;6.57;;;691.80;1536.00;;;;;;5375205;26;20336;-75
2024/04/10 12:50:14;;;;;;;13.48;6.13;;;691.80;1561.60;;;;;;5374632;26;20328;-79
2024/04/10 12:52:43;;;;;;;14.63;6.53;;;691.70;1561.60;;;;;;5376024;26;19996;-75
2024/04/10 12:55:08;;;;;;;9.60;5.65;;;691.80;1561.60;;;;;;5365534;26;20077;-76
2024/04/10 12:57:37;;;;;;;17.42;5.65;;;691.60;1561.60;;;;;;5367878;26;20012;-79
2024/04/10 13:00:04;;;;;;;9.70;5.90;;;691.40;1587.20;;;;;;5356652;26;20012;-78
2024/04/10 13:02:30;;;;;;;22.85;6.63;;;691.50;1587.20;;;;;;5375287;26;20028;-79
2024/04/10 13:04:57;;;;;;;13.75;6.82;;;691.60;1587.20;;;;;;5376547;26;20206;-77
2024/04/10 13:07:23;;;;;;;15.15;6.70;;;691.20;1587.20;;;;;;5357974;26;20330;-77
2024/04/10 13:09:52;;;;;;;9.55;5.65;;;691.30;1612.80;;;;;;5376455;26;20004;-80
2024/04/10 13:12:18;;;;;;;13.25;6.28;;;691.20;1612.80;;;;;;5375227;26;20028;-81
2024/04/10 13:14:44;;;;;;;14.27;6.50;;;691.40;1612.80;;;;;;5375500;26;20012;-78
2024/04/10 13:17:10;;;;;;;11.88;5.90;;;691.30;1638.40;;;;;;5375598;26;20010;-78
2024/04/10 13:19:38;;;;;;;18.58;5.90;;;691.40;1612.80;;;;;;5358512;26;20017;-73
2024/04/10 13:22:04;;;;;;;13.85;6.60;;;691.30;1638.40;;;;;;5344404;26;20110;-72
2024/04/10 13:24:31;;;;;;;16.05;6.13;;;691.40;1638.40;;;;;;5343022;26;20040;-77
2024/04/10 13:26:57;;;;;;;18.60;6.45;;;691.40;1638.40;;;;;;5352973;26;20003;-73
2024/04/10 13:29:22;;;;;;;12.00;5.68;;;691.40;1638.40;;;;;;5373942;26;20046;-73
2024/04/10 13:31:48;;;;;;;14.43;5.50;;;691.30;1638.40;;;;;;5373233;26;20012;-80
2024/04/10 13:34:14;;;;;;;9.40;6.22;;;691.30;1638.40;;;;;;5371031;26;20012;-76
2024/04/10 13:36:40;;;;;;;13.85;5.85;;;691.30;1638.40;;;;;;5372146;26;20001;-75
2024/04/10 13:39:06;;;;;;;12.32;6.60;;;;;;;;;;5369995;26;20004;-74
2024/04/10 13:41:33;;;;;;;14.40;6.50;;;666.50;1638.40;;;;;;5353927;26;20077;-76
2024/04/10 13:44:01;;;;;;;12.00;5.75;;;691.20;1664.00;;;;;;5373641;26;20016;-75
2024/04/10 13:46:27;;;;;;;15.35;5.25;;;691.20;1664.00;;;;;;5344252;26;20075;-72
2024/04/10 13:48:54;;;;;;;13.38;6.20;;;666.50;1664.00;;;;;;5346431;26;20017;-73
2024/04/10 13:51:21;;;;;;;19.77;6.50;;;;;;;;;;5374702;26;20474;-75
2024/04/10 13:53:47;;;;;;;17.88;6.63;;;666.30;1612.80;;;;;;5358667;26;20012;-74
2024/04/10 13:56:14;;;;;;;25.52;7.05;;;666.20;1612.80;;;;;;5367385;26;20001;-71
2024/04/10 13:58:41;;;;;;;12.18;5.07;;;665.90;1664.00;;;;;;5347433;26;20008;-77
2024/04/10 14:01:17;;;;;;;12.90;5.93;;;665.90;1664.00;;;;;;5355315;26;19996;-72
2024/04/10 14:03:45;;;;;;;12.30;5.78;;;666.00;1664.00;;;;;;5375132;26;20032;-73
2024/04/10 14:06:11;;;;;;;11.55;5.72;;;665.90;1664.00;;;;;;5374364;26;20012;-77
2024/04/10 14:08:40;;;;;;;12.70;5.15;;;665.90;1664.00;;;;;;5374913;26;20004;-77
2024/04/10 14:11:06;;;;;;;10.30;5.43;;;665.90;1664.00;;;;;;5374239;26;20015;-72
2024/04/10 14:13:34;;;;;;;15.80;5.78;;;665.90;1664.00;;;;;;5373964;26;20329;-78
2024/04/10 14:16:00;;;;;;;9.25;5.40;;;666.00;1689.60;;;;;;5374370;26;20012;-72